Time;durP1;ratioP1;P1;durP2;ratioP2;P2;SDS_P1;SDS_P2;PMS_P1;PMS_P2;Temp;Humidity;BMP_temperature;BMP_pressure;BME280_temperature;BME280_humidity;BME280_pressure;Samples;Min_cycle;Max_cycle;Signal;HPM_P1;HPM_P2
2021/03/13 00:02:44;;;;;;;;;;;;;;;4.51;70.80;99527.42;1616697;88;20526;-76
2021/03/13 00:05:36;;;;;;;;;;;;;;;4.53;70.77;99523.13;1616796;88;20297;-75
2021/03/13 00:08:20;;;;;;;;;;;;;;;4.52;70.76;99522.28;1628765;87;213831;-75
2021/03/13 00:11:07;;;;;;;;;;;;;;;4.54;70.78;99515.88;1642485;86;20307;-76
2021/03/13 00:13:52;;;;;;;;;;;;;;;4.54;70.76;99515.44;1638690;86;20611;-76
2021/03/13 00:16:37;;;;;;;;;;;;;;;4.55;70.71;99517.14;1642440;87;20310;-76
2021/03/13 00:19:21;;;;;;;;;;;;;;;4.57;70.73;99515.84;1678255;84;20300;-76
2021/03/13 00:22:06;;;;;;;;;;;;;;;4.56;70.68;99509.03;1619810;88;20600;-76
2021/03/13 00:24:50;;;;;;;;;;;;;;;4.54;70.71;99513.31;1639273;85;20299;-76
2021/03/13 00:27:45;;;;;;;;;;;;;;;4.55;70.76;99504.77;1651082;86;20279;-76
2021/03/13 00:30:24;;;;;;;;;;;;;;;4.56;70.75;99517.55;1627398;85;20304;-75
2021/03/13 00:33:12;;;;;;;;;;;;;;;4.57;70.70;99511.57;1629236;85;20274;-76
2021/03/13 00:35:56;;;;;;;;;;;;;;;4.58;70.72;99499.63;1641367;85;20283;-76
2021/03/13 00:38:41;;;;;;;;;;;;;;;4.60;70.72;99497.47;1641680;85;20541;-76
2021/03/13 00:41:25;;;;;;;;;;;;;;;4.61;70.68;99497.03;1670214;85;20277;-76
2021/03/13 00:44:09;;;;;;;;;;;;;;;4.62;70.70;99493.17;1645633;86;20196;-76
2021/03/13 00:46:54;;;;;;;;;;;;;;;4.64;70.67;99492.73;1652754;86;20786;-76
2021/03/13 00:49:38;;;;;;;;;;;;;;;4.66;70.66;99488.88;1640105;85;20280;-76
2021/03/13 00:52:22;;;;;;;;;;;;;;;4.69;70.70;99488.81;1637182;85;20273;-76
2021/03/13 00:55:08;;;;;;;;;;;;;;;4.71;70.67;99481.11;1626053;87;20265;-76
2021/03/13 00:57:53;;;;;;;;;;;;;;;4.73;70.66;99475.11;1635116;85;20292;-76
2021/03/13 01:00:38;;;;;;;;;;;;;;;4.75;70.65;99478.94;1634552;85;20262;-76
2021/03/13 01:03:22;;;;;;;;;;;;;;;4.78;70.67;99477.63;1625710;88;20298;-76
2021/03/13 01:06:07;;;;;;;;;;;;;;;4.81;70.67;99473.75;1626405;85;20498;-76
2021/03/13 01:08:51;;;;;;;;;;;;;;;4.83;70.63;99477.99;1643313;86;20323;-75
2021/03/13 01:11:36;;;;;;;;;;;;;;;4.84;70.66;99476.28;1651073;86;20681;-76
2021/03/13 01:14:22;;;;;;;;;;;;;;;4.87;70.64;99467.28;1636921;85;20296;-76
2021/03/13 01:17:07;;;;;;;;;;;;;;;4.90;70.66;99477.49;1639104;85;20323;-75
2021/03/13 01:19:51;;;;;;;;;;;;;;;4.92;70.65;99465.52;1650922;85;20303;-75
2021/03/13 01:22:36;;;;;;;;;;;;;;;4.94;70.67;99465.06;1648578;86;20288;-75
2021/03/13 01:25:20;;;;;;;;;;;;;;;4.95;70.64;99472.73;1673843;84;20353;-75
2021/03/13 01:28:05;;;;;;;;;;;;;;;4.97;70.66;99467.59;1641758;85;20319;-75
2021/03/13 01:30:49;;;;;;;;;;;;;;;4.98;70.65;99457.77;1631938;87;20613;-75
2021/03/13 01:33:34;;;;;;;;;;;;;;;5.00;70.68;99459.87;1656112;84;20555;-76
2021/03/13 01:36:19;;;;;;;;;;;;;;;5.01;70.77;99463.28;1619634;87;20293;-76
2021/03/13 01:39:04;;;;;;;;;;;;;;;5.01;70.86;99466.69;1637868;85;20567;-76
2021/03/13 01:41:48;;;;;;;;;;;;;;;5.00;70.91;99462.44;1651749;84;20265;-76
2021/03/13 01:44:32;;;;;;;;;;;;;;;5.01;70.98;99449.19;1628246;87;20258;-76
2021/03/13 01:47:23;;;;;;;;;;;;;;;5.01;71.06;99453.88;1620922;88;20461;-76
2021/03/13 01:50:08;;;;;;;;;;;;;;;5.03;71.18;99451.30;1626921;85;20261;-76
2021/03/13 01:52:53;;;;;;;;;;;;;;;5.03;71.24;99450.87;1619609;87;20293;-76
2021/03/13 01:55:37;;;;;;;;;;;;;;;5.03;71.23;99456.42;1641422;84;20959;-75
2021/03/13 01:58:22;;;;;;;;;;;;;;;5.00;71.27;99441.94;1619311;88;20322;-76
2021/03/13 02:01:07;;;;;;;;;;;;;;;4.97;71.41;99454.78;1621214;85;20285;-76
2021/03/13 02:03:52;;;;;;;;;;;;;;;4.96;71.57;99445.41;1664675;84;20236;-76
2021/03/13 02:06:37;;;;;;;;;;;;;;;4.96;71.57;99446.25;1632755;85;20303;-76
2021/03/13 02:09:43;;;;;;;;;;;;;;;4.95;71.59;99449.68;1645835;87;20220;-75
2021/03/13 02:12:55;;;;;;;;;;;;;;;4.95;71.70;99448.83;1625377;85;20293;-76
2021/03/13 02:15:52;;;;;;;;;;;;;;;4.94;71.78;99446.70;1643152;87;20324;-75
2021/03/13 02:18:52;;;;;;;;;;;;;;;4.94;71.87;99442.86;1677864;84;20686;-75
2021/03/13 02:21:44;;;;;;;;;;;;;;;4.93;71.90;99434.77;1644873;87;20318;-75
2021/03/13 02:24:35;;;;;;;;;;;;;;;4.92;71.91;99432.22;1645307;85;20311;-75
2021/03/13 02:27:29;;;;;;;;;;;;;;;4.89;71.97;99426.70;1688836;84;20637;-75
2021/03/13 02:30:22;;;;;;;;;;;;;;;4.89;72.01;99423.30;1645733;85;20310;-75
2021/03/13 02:33:22;;;;;;;;;;;;;;;4.88;71.97;99419.88;1647139;84;20286;-75
2021/03/13 02:36:10;;;;;;;;;;;;;;;4.87;72.06;99424.59;1695448;84;20272;-75
2021/03/13 02:38:57;;;;;;;;;;;;;;;4.88;72.10;99418.60;1655967;85;20282;-76
2021/03/13 02:41:44;;;;;;;;;;;;;;;4.91;72.13;99417.28;1649863;87;20257;-76
2021/03/13 02:44:30;;;;;;;;;;;;;;;4.93;72.12;99421.11;1629602;84;20265;-76
2021/03/13 02:47:15;;;;;;;;;;;;;;;4.93;72.12;99423.23;1629030;87;20257;-76
2021/03/13 02:50:01;;;;;;;;;;;;;;;4.93;72.09;99421.95;1659724;84;20296;-76
2021/03/13 02:52:48;;;;;;;;;;;;;;;4.94;72.13;99424.93;1649930;85;20169;-76
2021/03/13 02:55:33;;;;;;;;;;;;;;;4.93;72.08;99415.98;1662123;84;20291;-76
2021/03/13 02:58:19;;;;;;;;;;;;;;;4.93;72.07;99418.55;1649979;87;20509;-76
2021/03/13 03:01:04;;;;;;;;;;;;;;;4.92;72.04;99415.57;1649866;87;20289;-76
2021/03/13 03:03:49;;;;;;;;;;;;;;;4.90;72.07;99413.46;1667483;85;20602;-76
2021/03/13 03:06:37;;;;;;;;;;;;;;;4.89;72.06;99414.33;1648380;87;20288;-76
2021/03/13 03:09:22;;;;;;;;;;;;;;;4.87;72.08;99412.22;1652704;84;20683;-76
2021/03/13 03:12:08;;;;;;;;;;;;;;;4.85;72.12;99411.39;1675754;85;20322;-76
2021/03/13 03:14:54;;;;;;;;;;;;;;;4.83;72.12;99414.40;1675863;85;20314;-76
2021/03/13 03:17:39;;;;;;;;;;;;;;;4.80;72.13;99410.16;1669342;84;20362;-76
2021/03/13 03:20:24;;;;;;;;;;;;;;;4.77;72.22;99414.04;1675712;85;20307;-76
2021/03/13 03:23:08;;;;;;;;;;;;;;;4.78;72.25;99414.89;1665810;84;20606;-76
2021/03/13 03:25:54;;;;;;;;;;;;;;;4.77;72.24;99414.04;1637298;87;20302;-76
2021/03/13 03:28:39;;;;;;;;;;;;;;;4.77;72.29;99411.91;1637373;87;20305;-76
2021/03/13 03:31:24;;;;;;;;;;;;;;;4.78;72.29;99409.33;1638646;84;436568;-75
2021/03/13 03:34:09;;;;;;;;;;;;;;;4.79;72.32;99407.62;1652669;84;20501;-75
2021/03/13 03:36:53;;;;;;;;;;;;;;;4.78;72.31;99413.61;1676350;84;20410;-75
2021/03/13 03:39:38;;;;;;;;;;;;;;;4.77;72.36;99411.91;1637565;86;20577;-75
2021/03/13 03:42:23;;;;;;;;;;;;;;;4.77;72.37;99415.75;1638013;85;20293;-75
2021/03/13 03:45:09;;;;;;;;;;;;;;;4.79;72.40;99408.90;1637324;86;20986;-75
2021/03/13 03:47:55;;;;;;;;;;;;;;;4.79;72.42;99411.03;1618234;87;20310;-75
2021/03/13 03:50:40;;;;;;;;;;;;;;;4.81;72.43;99407.17;1652475;85;20528;-75
2021/03/13 03:53:28;;;;;;;;;;;;;;;4.80;72.40;99410.59;1640306;85;20306;-75
2021/03/13 03:56:13;;;;;;;;;;;;;;;4.78;72.43;99408.05;1663707;85;20338;-76
2021/03/13 03:58:57;;;;;;;;;;;;;;;4.76;72.41;99401.25;1665752;86;20259;-75
2021/03/13 04:01:48;;;;;;;;;;;;;;;4.76;72.44;99408.94;1641813;86;20317;-75
2021/03/13 04:04:33;;;;;;;;;;;;;;;4.74;72.42;99411.95;1665282;86;20303;-76
2021/03/13 04:07:18;;;;;;;;;;;;;;;4.72;72.49;99417.08;1663447;85;20315;-76
2021/03/13 04:10:07;;;;;;;;;;;;;;;4.69;72.50;99415.84;1663993;85;20330;-76
2021/03/13 04:12:52;;;;;;;;;;;;;;;4.68;72.55;99420.55;1664408;86;20487;-76
2021/03/13 04:15:38;;;;;;;;;;;;;;;4.69;72.59;99419.68;1645572;85;20329;-76
2021/03/13 04:18:24;;;;;;;;;;;;;;;4.69;72.60;99418.40;1663675;85;20318;-76
2021/03/13 04:21:10;;;;;;;;;;;;;;;4.71;72.62;99426.91;1676683;84;20299;-76
2021/03/13 04:23:55;;;;;;;;;;;;;;;4.71;72.58;99429.47;1665248;85;20281;-76
2021/03/13 04:26:40;;;;;;;;;;;;;;;4.72;72.62;99429.04;1649006;86;20297;-76
2021/03/13 04:29:25;;;;;;;;;;;;;;;4.74;72.69;99435.84;1636760;87;20305;-76
2021/03/13 04:32:09;;;;;;;;;;;;;;;4.77;72.71;99437.52;1642259;85;20339;-76
2021/03/13 04:34:54;;;;;;;;;;;;;;;4.79;72.72;99439.63;1657124;84;20328;-75
2021/03/13 04:37:39;;;;;;;;;;;;;;;4.83;72.73;99443.85;1652397;85;20287;-75
2021/03/13 04:40:24;;;;;;;;;;;;;;;4.84;72.73;99442.55;1638213;86;20282;-75
2021/03/13 04:43:09;;;;;;;;;;;;;;;4.87;72.75;99449.35;1679153;84;20182;-75
2021/03/13 04:45:58;;;;;;;;;;;;;;;4.90;72.74;99448.04;1667941;84;20266;-75
2021/03/13 04:48:43;;;;;;;;;;;;;;;4.92;72.76;99445.03;1664998;86;20295;-75
2021/03/13 04:51:28;;;;;;;;;;;;;;;4.93;72.74;99451.41;1663909;86;20259;-75
2021/03/13 04:54:13;;;;;;;;;;;;;;;4.94;72.78;99447.14;1657264;84;20297;-75
2021/03/13 04:56:57;;;;;;;;;;;;;;;4.94;72.73;99451.83;1638549;85;20478;-75
2021/03/13 04:59:42;;;;;;;;;;;;;;;4.95;72.73;99460.36;1654738;86;20267;-75
2021/03/13 05:02:26;;;;;;;;;;;;;;;4.94;72.73;99461.23;1663765;86;20323;-76
2021/03/13 05:05:11;;;;;;;;;;;;;;;4.94;72.78;99459.94;1648072;85;20313;-76
2021/03/13 05:07:56;;;;;;;;;;;;;;;4.94;72.78;99467.20;1636727;86;20581;-76
2021/03/13 05:10:40;;;;;;;;;;;;;;;4.95;72.80;99475.73;1636754;86;20301;-76
2021/03/13 05:13:25;;;;;;;;;;;;;;;4.95;72.88;99476.58;1663553;86;20319;-75
2021/03/13 05:16:09;;;;;;;;;;;;;;;4.98;72.85;99470.57;1636702;85;20318;-75
2021/03/13 05:18:55;;;;;;;;;;;;;;;4.99;72.87;99469.70;1642866;86;21203;-75
2021/03/13 05:21:39;;;;;;;;;;;;;;;4.99;72.83;99473.11;1684720;84;20305;-75
2021/03/13 05:24:24;;;;;;;;;;;;;;;4.99;72.89;99473.11;1661704;85;20816;-75
2021/03/13 05:27:08;;;;;;;;;;;;;;;5.00;72.89;99472.69;1633878;86;20605;-75
2021/03/13 05:29:53;;;;;;;;;;;;;;;5.01;72.89;99482.06;1634007;87;21000;-75
2021/03/13 05:32:38;;;;;;;;;;;;;;;4.99;72.90;99485.92;1634094;85;20309;-75
2021/03/13 05:35:23;;;;;;;;;;;;;;;4.98;72.90;99480.38;1658382;84;20291;-75
2021/03/13 05:38:08;;;;;;;;;;;;;;;4.99;72.94;99479.95;1655042;85;20315;-76
2021/03/13 05:40:56;;;;;;;;;;;;;;;4.98;72.97;99485.51;1659783;85;20323;-75
2021/03/13 05:43:40;;;;;;;;;;;;;;;4.95;72.94;99472.73;1653409;85;20310;-75
2021/03/13 05:46:26;;;;;;;;;;;;;;;4.95;72.96;99481.70;1659989;85;20303;-75
2021/03/13 05:49:11;;;;;;;;;;;;;;;4.97;72.99;99481.25;1659786;85;20586;-76
2021/03/13 05:51:56;;;;;;;;;;;;;;;4.97;72.98;99481.25;1658878;85;20716;-76
2021/03/13 05:54:40;;;;;;;;;;;;;;;4.97;73.00;99488.94;1663016;85;20342;-76
2021/03/13 05:57:25;;;;;;;;;;;;;;;4.99;73.04;99486.36;1670005;85;20294;-76
2021/03/13 06:00:10;;;;;;;;;;;;;;;5.02;73.09;99490.16;1660656;85;20285;-76
2021/03/13 06:02:55;;;;;;;;;;;;;;;5.03;73.08;99485.45;1661182;85;20579;-75
2021/03/13 06:05:40;;;;;;;;;;;;;;;5.04;73.06;99483.74;1656783;85;20308;-75
2021/03/13 06:08:24;;;;;;;;;;;;;;;5.07;73.17;99485.83;1660466;85;21309;-75
2021/03/13 06:11:09;;;;;;;;;;;;;;;5.16;73.29;99484.45;1655339;85;20403;-76
2021/03/13 06:13:53;;;;;;;;;;;;;;;5.28;73.20;99471.45;1656611;85;20567;-76
2021/03/13 06:16:39;;;;;;;;;;;;;;;5.65;73.66;99474.80;1656755;85;20980;-76
2021/03/13 06:19:24;;;;;;;;;;;;;;;6.19;73.62;99485.10;1662330;85;20287;-76
2021/03/13 06:22:08;;;;;;;;;;;;;;;6.66;73.45;99479.12;1654990;85;20740;-75
2021/03/13 06:24:52;;;;;;;;;;;;;;;7.01;72.93;99475.85;1670274;84;20306;-75
2021/03/13 06:27:37;;;;;;;;;;;;;;;7.16;72.69;99472.98;1674258;84;20496;-75
2021/03/13 06:30:22;;;;;;;;;;;;;;;7.39;72.96;99466.48;1678474;84;20633;-75
2021/03/13 06:33:30;;;;;;;;;;;;;;;7.63;72.61;99471.09;1653883;84;20320;-75
2021/03/13 06:36:24;;;;;;;;;;;;;;;7.80;72.56;99454.80;1670842;84;20421;-75
2021/03/13 06:39:11;;;;;;;;;;;;;;;7.64;72.11;99463.34;1678494;84;20310;-75
2021/03/13 06:41:56;;;;;;;;;;;;;;;7.35;72.08;99464.41;1655460;84;20338;-75
2021/03/13 06:44:58;;;;;;;;;;;;;;;7.26;72.35;99473.20;1671745;84;21010;-76
2021/03/13 06:47:43;;;;;;;;;;;;;;;7.42;72.82;99474.13;1669868;84;20295;-76
2021/03/13 06:50:28;;;;;;;;;;;;;;;7.74;72.85;99472.14;1673421;84;20320;-76
2021/03/13 06:53:13;;;;;;;;;;;;;;;7.81;72.26;99476.23;1669704;84;20414;-76
2021/03/13 06:56:08;;;;;;;;;;;;;;;7.69;72.24;99481.69;1672781;84;20436;-76
2021/03/13 06:58:53;;;;;;;;;;;;;;;7.61;72.45;99479.28;1669930;84;20310;-76
2021/03/13 07:01:38;;;;;;;;;;;;;;;7.81;72.78;99490.39;1678845;84;20304;-76
2021/03/13 07:04:41;;;;;;;;;;;;;;;8.05;72.68;99485.12;1675525;84;20299;-77
2021/03/13 07:07:30;;;;;;;;;;;;;;;8.29;72.68;99485.38;1668303;84;20347;-76
2021/03/13 07:10:16;;;;;;;;;;;;;;;8.57;72.51;99477.80;1673985;84;20310;-77
2021/03/13 07:13:01;;;;;;;;;;;;;;;8.62;72.07;99478.52;1653312;84;20298;-74
2021/03/13 07:15:46;;;;;;;;;;;;;;;8.56;72.08;99476.11;1670026;84;20295;-74
2021/03/13 07:18:30;;;;;;;;;;;;;;;8.68;72.05;99477.52;1669557;84;20314;-74
2021/03/13 07:21:17;;;;;;;;;;;;;;;8.78;72.17;99469.95;1652245;84;20294;-74
2021/03/13 07:24:04;;;;;;;;;;;;;;;8.90;72.11;99475.18;1670737;84;20342;-74
2021/03/13 07:26:51;;;;;;;;;;;;;;;9.09;72.24;99477.66;1675352;84;20295;-74
2021/03/13 07:29:38;;;;;;;;;;;;;;;9.29;72.07;99469.35;1668112;84;20317;-75
2021/03/13 07:32:25;;;;;;;;;;;;;;;9.44;72.12;99474.48;1685807;84;20412;-75
2021/03/13 07:35:11;;;;;;;;;;;;;;;9.55;71.71;99471.14;1666499;84;20335;-74
2021/03/13 07:37:56;;;;;;;;;;;;;;;9.58;71.80;99468.46;1669348;84;21206;-75
2021/03/13 07:40:46;;;;;;;;;;;;;;;9.63;71.86;99478.20;1671503;84;20319;-75
2021/03/13 07:43:30;;;;;;;;;;;;;;;9.64;71.57;99479.89;1667944;85;20298;-75
2021/03/13 07:46:15;;;;;;;;;;;;;;;9.57;71.85;99475.36;1676105;84;20322;-75
2021/03/13 07:49:00;;;;;;;;;;;;;;;9.65;71.81;99479.00;1675408;84;20383;-74
2021/03/13 07:51:45;;;;;;;;;;;;;;;9.68;71.90;99481.48;1674504;84;20539;-74
2021/03/13 07:54:30;;;;;;;;;;;;;;;9.66;71.65;99479.40;1671295;84;20298;-74
2021/03/13 07:57:16;;;;;;;;;;;;;;;9.63;71.75;99476.91;1675485;84;20554;-75
2021/03/13 08:00:00;;;;;;;;;;;;;;;9.70;71.90;99478.86;1665108;84;20296;-75
2021/03/13 08:02:45;;;;;;;;;;;;;;;9.77;71.72;99477.34;1672180;85;20310;-74
2021/03/13 08:05:32;;;;;;;;;;;;;;;9.84;71.77;99479.28;1674836;84;20334;-74
2021/03/13 08:08:19;;;;;;;;;;;;;;;9.91;71.65;99466.55;1646979;85;20314;-74
2021/03/13 08:11:05;;;;;;;;;;;;;;;9.93;71.46;99464.31;1652130;84;20330;-74
2021/03/13 08:14:00;;;;;;;;;;;;;;;10.00;71.54;99461.54;1673514;84;20422;-74
2021/03/13 08:16:44;;;;;;;;;;;;;;;9.90;71.21;99458.41;1673650;84;20334;-74
2021/03/13 08:19:36;;;;;;;;;;;;;;;9.58;71.28;99477.05;1681674;84;20359;-74
2021/03/13 08:22:22;;;;;;;;;;;;;;;9.44;71.53;99458.55;1673920;84;20223;-75
2021/03/13 08:25:24;;;;;;;;;;;;;;;9.36;71.61;99459.70;1656109;84;20577;-75
2021/03/13 08:28:09;;;;;;;;;;;;;;;9.37;71.61;99462.20;1600648;87;20428;-74
2021/03/13 08:30:57;;;;;;;;;;;;;;;9.21;71.33;99466.99;1629133;86;20302;-74
2021/03/13 08:33:41;;;;;;;;;;;;;;;9.00;71.40;99457.73;1626089;86;20316;-74
2021/03/13 08:36:28;;;;;;;;;;;;;;;8.96;71.52;99455.68;1564721;90;20305;-74
2021/03/13 08:39:14;;;;;;;;;;;;;;;9.00;71.68;99453.42;1589755;88;20295;-74
2021/03/13 08:42:01;;;;;;;;;;;;;;;9.06;71.69;99443.38;1626980;87;20425;-77
2021/03/13 08:44:45;;;;;;;;;;;;;;;9.16;71.47;99439.20;1630570;87;20987;-77
2021/03/13 08:47:33;;;;;;;;;;;;;;;9.28;71.50;99429.81;1624011;87;20314;-76
2021/03/13 08:50:47;;;;;;;;;;;;;;;9.46;71.57;99422.38;1627473;86;20359;-76
2021/03/13 08:53:36;;;;;;;;;;;;;;;9.70;71.38;99420.34;1556627;90;20324;-76
2021/03/13 08:56:43;;;;;;;;;;;;;;;10.03;71.09;99412.38;1555562;90;20335;-76
2021/03/13 08:59:28;;;;;;;;;;;;;;;10.17;70.98;99400.69;1557310;90;20667;-76
2021/03/13 09:02:15;;;;;;;;;;;;;;;9.95;70.95;99403.14;1561667;90;21318;-76
2021/03/13 09:05:09;;;;;;;;;;;;;;;9.71;70.97;99401.38;1568760;90;20341;-76
2021/03/13 09:07:58;;;;;;;;;;;;;;;9.51;70.94;99403.73;1530375;92;20331;-76
2021/03/13 09:10:40;;;;;;;;;;;;;;;9.37;71.07;99394.28;1533586;92;20320;-76
2021/03/13 09:13:25;;;;;;;;;;;;;;;9.26;71.12;99392.91;1532089;92;20735;-74
2021/03/13 09:16:17;;;;;;;;;;;;;;;9.27;71.30;99391.17;1558460;90;20365;-74
2021/03/13 09:19:01;;;;;;;;;;;;;;;9.31;71.18;99390.63;1566776;90;20331;-75
2021/03/13 09:21:49;;;;;;;;;;;;;;;9.32;71.07;99389.30;1557679;90;20324;-74
2021/03/13 09:24:34;;;;;;;;;;;;;;;9.39;71.14;99380.89;1561138;89;20605;-75
2021/03/13 09:27:25;;;;;;;;;;;;;;;9.42;70.88;99371.77;1583865;89;20307;-74
2021/03/13 09:30:18;;;;;;;;;;;;;;;9.44;70.85;99371.27;1609355;85;20335;-74
2021/03/13 09:33:03;;;;;;;;;;;;;;;9.50;70.80;99364.63;1647612;85;20307;-75
2021/03/13 09:35:48;;;;;;;;;;;;;;;9.49;70.67;99370.23;1632506;85;20306;-75
2021/03/13 09:38:32;;;;;;;;;;;;;;;9.45;70.58;99360.91;1647427;85;20610;-74
2021/03/13 09:41:17;;;;;;;;;;;;;;;9.44;70.70;99360.95;1651645;85;20287;-74
2021/03/13 09:44:02;;;;;;;;;;;;;;;9.54;70.75;99358.48;1647898;85;20710;-75
2021/03/13 09:46:46;;;;;;;;;;;;;;;9.54;70.45;99358.04;1653705;85;20326;-74
2021/03/13 09:49:31;;;;;;;;;;;;;;;9.51;70.48;99343.94;1659181;85;20304;-74
2021/03/13 09:52:19;;;;;;;;;;;;;;;9.58;70.53;99337.69;1646273;85;20286;-74
2021/03/13 09:55:12;;;;;;;;;;;;;;;9.70;70.61;99322.25;1648700;85;20434;-77
2021/03/13 09:57:58;;;;;;;;;;;;;;;9.77;70.39;99319.87;1649156;85;20318;-76
2021/03/13 10:00:43;;;;;;;;;;;;;;;9.83;70.50;99319.66;1639542;85;20319;-76
2021/03/13 10:03:29;;;;;;;;;;;;;;;9.82;70.13;99318.42;1664153;85;20546;-77
2021/03/13 10:06:13;;;;;;;;;;;;;;;9.84;70.23;99312.31;1638174;85;20696;-77
2021/03/13 10:08:58;;;;;;;;;;;;;;;9.85;70.14;99313.16;1651823;85;20294;-74
2021/03/13 10:11:43;;;;;;;;;;;;;;;9.86;70.16;99317.42;1641541;85;20509;-74
2021/03/13 10:14:28;;;;;;;;;;;;;;;9.91;70.04;99317.63;1649911;85;20327;-74
2021/03/13 10:17:12;;;;;;;;;;;;;;;9.93;69.99;99313.27;1649387;85;20330;-74
2021/03/13 10:20:00;;;;;;;;;;;;;;;9.91;69.83;99306.46;1663057;85;20330;-74
2021/03/13 10:22:45;;;;;;;;;;;;;;;9.91;69.89;99303.44;1657913;85;20287;-77
2021/03/13 10:25:29;;;;;;;;;;;;;;;9.94;69.71;99298.61;1656613;85;20284;-77
2021/03/13 10:28:14;;;;;;;;;;;;;;;9.88;69.66;99308.70;1674130;85;20311;-74
2021/03/13 10:31:11;;;;;;;;;;;;;;;9.87;69.71;99292.84;1664238;85;20201;-74
2021/03/13 10:33:55;;;;;;;;;;;;;;;9.91;69.79;99291.81;1665295;85;20427;-77
2021/03/13 10:36:45;;;;;;;;;;;;;;;9.95;69.83;99284.80;1670048;84;20329;-77
2021/03/13 10:39:30;;;;;;;;;;;;;;;10.04;69.76;99292.23;1668826;85;20263;-77
2021/03/13 10:42:22;;;;;;;;;;;;;;;10.09;69.51;99281.74;1664782;85;20303;-77
2021/03/13 10:45:15;;;;;;;;;;;;;;;10.11;69.50;99274.78;1665522;84;20276;-77
2021/03/13 10:48:08;;;;;;;;;;;;;;;10.11;69.36;99276.92;1671936;84;20288;-77
2021/03/13 10:50:56;;;;;;;;;;;;;;;10.09;69.22;99267.09;1663515;84;20278;-77
2021/03/13 10:53:41;;;;;;;;;;;;;;;10.03;69.21;99267.30;1667555;84;20475;-77
2021/03/13 10:56:38;;;;;;;;;;;;;;;9.95;69.27;99262.86;1665211;84;20275;-78
2021/03/13 10:59:33;;;;;;;;;;;;;;;9.90;69.22;99256.56;1666311;84;20309;-78
2021/03/13 11:02:18;;;;;;;;;;;;;;;9.80;69.11;99262.13;1664132;84;20594;-77
2021/03/13 11:05:02;;;;;;;;;;;;;;;9.78;69.25;99253.59;1671668;85;20251;-78
2021/03/13 11:07:49;;;;;;;;;;;;;;;9.80;69.16;99247.48;1655184;85;20328;-78
2021/03/13 11:10:33;;;;;;;;;;;;;;;9.87;69.22;99242.50;1666248;84;20305;-78
2021/03/13 11:13:18;;;;;;;;;;;;;;;9.90;69.08;99239.78;1668801;84;20658;-77
2021/03/13 11:16:03;;;;;;;;;;;;;;;9.85;69.04;99227.52;1670894;84;20305;-78
2021/03/13 11:18:50;;;;;;;;;;;;;;;9.80;69.00;99244.05;1668148;84;20291;-78
2021/03/13 11:21:35;;;;;;;;;;;;;;;9.74;69.12;99239.11;1664983;85;20298;-78
2021/03/13 11:24:20;;;;;;;;;;;;;;;9.69;69.13;99238.42;1655920;85;20425;-78
2021/03/13 11:27:06;;;;;;;;;;;;;;;9.56;69.05;99240.58;1660081;84;20296;-78
2021/03/13 11:29:50;;;;;;;;;;;;;;;9.45;69.26;99241.38;1661918;85;20313;-78
2021/03/13 11:32:34;;;;;;;;;;;;;;;9.33;69.20;99242.66;1659890;84;20320;-78
2021/03/13 11:35:19;;;;;;;;;;;;;;;9.24;69.33;99232.64;1617441;86;20304;-78
2021/03/13 11:38:04;;;;;;;;;;;;;;;9.19;69.48;99232.78;1609018;87;20360;-78
2021/03/13 11:40:49;;;;;;;;;;;;;;;9.18;69.50;99219.94;1657382;85;20394;-78
2021/03/13 11:43:38;;;;;;;;;;;;;;;9.12;69.48;99228.72;1651419;84;20731;-78
2021/03/13 11:46:24;;;;;;;;;;;;;;;9.09;69.51;99217.66;1660417;84;20267;-78
2021/03/13 11:49:08;;;;;;;;;;;;;;;9.01;69.49;99211.45;1639703;85;20608;-78
2021/03/13 11:51:53;;;;;;;;;;;;;;;8.98;69.68;99203.82;1662915;84;20307;-77
2021/03/13 11:54:37;;;;;;;;;;;;;;;8.99;69.76;99200.35;1663129;84;20764;-76
2021/03/13 11:57:22;;;;;;;;;;;;;;;8.98;69.82;99194.80;1660662;84;20319;-76
2021/03/13 12:00:09;;;;;;;;;;;;;;;8.97;70.00;99196.98;1662804;84;21104;-76
2021/03/13 12:02:54;;;;;;;;;;;;;;;8.96;69.94;99198.72;1661847;84;20430;-76
2021/03/13 12:05:38;;;;;;;;;;;;;;;8.89;69.86;99184.78;1656289;85;20292;-76
2021/03/13 12:08:23;;;;;;;;;;;;;;;8.80;69.96;99183.37;1665195;84;20304;-76
2021/03/13 12:11:07;;;;;;;;;;;;;;;8.75;70.09;99180.09;1617225;86;20266;-76
2021/03/13 12:13:52;;;;;;;;;;;;;;;8.69;70.08;99176.42;1609807;87;20296;-76
2021/03/13 12:16:36;;;;;;;;;;;;;;;8.63;70.30;99157.28;1616619;87;20293;-75
2021/03/13 12:19:21;;;;;;;;;;;;;;;8.66;70.39;99150.75;1659513;85;20307;-75
2021/03/13 12:22:06;;;;;;;;;;;;;;;8.68;70.38;99150.70;1652636;84;20307;-76
2021/03/13 12:24:51;;;;;;;;;;;;;;;8.66;70.44;99149.45;1638625;86;20387;-76
2021/03/13 12:27:41;;;;;;;;;;;;;;;8.65;70.49;99133.59;1675118;84;20307;-76
2021/03/13 12:30:27;;;;;;;;;;;;;;;8.62;70.40;99137.56;1671332;84;20290;-76
2021/03/13 12:33:12;;;;;;;;;;;;;;;8.56;70.40;99127.45;1668365;84;20574;-76
2021/03/13 12:35:56;;;;;;;;;;;;;;;8.52;70.53;99112.98;1646505;87;20571;-76
2021/03/13 12:38:41;;;;;;;;;;;;;;;8.51;70.58;99103.56;1676520;84;20670;-77
2021/03/13 12:41:25;;;;;;;;;;;;;;;8.52;70.73;99100.94;1660510;85;20297;-75
2021/03/13 12:44:10;;;;;;;;;;;;;;;8.48;70.62;99095.48;1669704;84;20302;-76
2021/03/13 12:46:55;;;;;;;;;;;;;;;8.46;70.74;99081.81;1673889;84;20310;-76
2021/03/13 12:49:39;;;;;;;;;;;;;;;8.44;70.70;99072.45;1669715;84;20417;-76
2021/03/13 12:52:24;;;;;;;;;;;;;;;8.39;70.71;99067.45;1674820;84;20286;-76
2021/03/13 12:55:09;;;;;;;;;;;;;;;8.34;70.74;99063.33;1674150;84;20306;-76
2021/03/13 12:57:54;;;;;;;;;;;;;;;8.29;70.83;99060.45;1670169;84;20310;-76
2021/03/13 13:00:40;;;;;;;;;;;;;;;8.24;70.83;99054.61;1673742;84;20335;-76
2021/03/13 13:03:25;;;;;;;;;;;;;;;8.18;70.90;99042.37;1675126;84;20298;-76
2021/03/13 13:06:09;;;;;;;;;;;;;;;8.14;71.10;99033.05;1674511;84;20270;-76
2021/03/13 13:08:54;;;;;;;;;;;;;;;8.10;71.13;99038.75;1672889;84;20263;-76
2021/03/13 13:11:39;;;;;;;;;;;;;;;8.06;71.20;99029.43;1672610;84;20263;-76
2021/03/13 13:14:23;;;;;;;;;;;;;;;8.04;71.29;99025.22;1670314;84;20171;-76
2021/03/13 13:17:07;;;;;;;;;;;;;;;8.02;71.33;99022.70;1671420;84;20836;-76
2021/03/13 13:19:52;;;;;;;;;;;;;;;8.01;71.44;99021.45;1674258;84;20284;-76
2021/03/13 13:22:36;;;;;;;;;;;;;;;8.01;71.44;99015.86;1675426;84;20255;-76
2021/03/13 13:25:22;;;;;;;;;;;;;;;8.02;71.49;99008.53;1674515;84;20278;-76
2021/03/13 13:28:07;;;;;;;;;;;;;;;8.01;71.48;99000.86;1674017;84;20544;-76
2021/03/13 13:30:53;;;;;;;;;;;;;;;8.00;71.55;99005.17;1672564;84;20264;-76
2021/03/13 13:33:37;;;;;;;;;;;;;;;7.98;71.59;98997.49;1676229;84;20299;-76
2021/03/13 13:36:24;;;;;;;;;;;;;;;7.98;71.62;98986.36;1676492;84;20258;-76
2021/03/13 13:39:08;;;;;;;;;;;;;;;7.97;71.64;98985.52;1676399;84;20262;-76
2021/03/13 13:41:52;;;;;;;;;;;;;;;7.96;71.65;98983.83;1673792;84;20247;-76
2021/03/13 13:44:37;;;;;;;;;;;;;;;7.95;71.80;98974.88;1675877;84;20268;-76
2021/03/13 13:47:21;;;;;;;;;;;;;;;7.94;71.77;98968.88;1676485;84;20336;-76
2021/03/13 13:50:10;;;;;;;;;;;;;;;7.91;71.82;98962.55;1675586;84;20602;-76
2021/03/13 13:52:55;;;;;;;;;;;;;;;7.88;71.87;98951.50;1675113;84;20701;-75
2021/03/13 13:55:43;;;;;;;;;;;;;;;7.87;71.99;98965.27;1671683;84;20326;-75
2021/03/13 13:58:27;;;;;;;;;;;;;;;7.87;71.99;98958.83;1676305;84;20275;-76
2021/03/13 14:01:11;;;;;;;;;;;;;;;7.86;72.14;98955.41;1674564;84;20415;-76
2021/03/13 14:03:56;;;;;;;;;;;;;;;7.86;72.17;98937.40;1669315;84;20304;-76
2021/03/13 14:06:41;;;;;;;;;;;;;;;7.84;72.08;98942.20;1674372;84;20585;-76
2021/03/13 14:09:25;;;;;;;;;;;;;;;7.81;72.25;98943.58;1665305;84;20300;-76
2021/03/13 14:12:10;;;;;;;;;;;;;;;7.78;72.24;98939.84;1674210;83;20737;-76
2021/03/13 14:14:55;;;;;;;;;;;;;;;7.76;72.31;98934.75;1673287;84;20315;-76
2021/03/13 14:17:40;;;;;;;;;;;;;;;7.75;72.31;98931.78;1670780;84;20326;-76
2021/03/13 14:20:24;;;;;;;;;;;;;;;7.73;72.32;98928.86;1675253;84;20310;-76
2021/03/13 14:23:09;;;;;;;;;;;;;;;7.71;72.48;98922.48;1675738;84;20308;-76
2021/03/13 14:25:54;;;;;;;;;;;;;;;7.70;72.58;98925.94;1672867;84;20310;-76
2021/03/13 14:28:38;;;;;;;;;;;;;;;7.70;72.60;98921.23;1674503;84;20686;-76
2021/03/13 14:31:24;;;;;;;;;;;;;;;7.69;72.67;98922.12;1676690;84;20310;-76
2021/03/13 14:34:09;;;;;;;;;;;;;;;7.68;72.68;98923.02;1655925;84;20546;-76
2021/03/13 14:36:53;;;;;;;;;;;;;;;7.64;72.73;98914.55;1679355;84;20472;-76
2021/03/13 14:39:38;;;;;;;;;;;;;;;7.64;72.89;98910.69;1679299;84;20302;-76